sensor_id;sensor_type;location;lat;lon;timestamp;pressure;altitude;pressure_sealevel;temperature;humidity
54816;BME280;40715;55.752;37.884;2023-05-10T00:01:33;100054.25;;;31.47;25.53
54816;BME280;40715;55.752;37.884;2023-05-10T00:04:00;100045.53;;;31.44;25.63
54816;BME280;40715;55.752;37.884;2023-05-10T00:06:27;100057.13;;;31.46;25.30
54816;BME280;40715;55.752;37.884;2023-05-10T00:08:54;100047.97;;;31.47;25.19
54816;BME280;40715;55.752;37.884;2023-05-10T00:11:21;100053.25;;;31.48;25.08
54816;BME280;40715;55.752;37.884;2023-05-10T00:13:49;100050.53;;;31.48;25.03
54816;BME280;40715;55.752;37.884;2023-05-10T00:16:16;100052.38;;;31.48;25.50
54816;BME280;40715;55.752;37.884;2023-05-10T00:18:43;100052.38;;;31.48;25.22
54816;BME280;40715;55.752;37.884;2023-05-10T00:21:10;100049.66;;;31.48;25.35
54816;BME280;40715;55.752;37.884;2023-05-10T00:23:37;100046.91;;;31.48;25.12
54816;BME280;40715;55.752;37.884;2023-05-10T00:26:04;100055.97;;;31.48;24.80
54816;BME280;40715;55.752;37.884;2023-05-10T00:28:31;100051.38;;;31.49;24.92
54816;BME280;40715;55.752;37.884;2023-05-10T00:30:58;100051.53;;;31.47;25.08
54816;BME280;40715;55.752;37.884;2023-05-10T00:33:25;100047.09;;;31.46;24.83
54816;BME280;40715;55.752;37.884;2023-05-10T00:35:52;100056.97;;;31.47;24.83
54816;BME280;40715;55.752;37.884;2023-05-10T00:38:19;100050.69;;;31.47;25.13
54816;BME280;40715;55.752;37.884;2023-05-10T00:40:47;100050.81;;;31.45;24.97
54816;BME280;40715;55.752;37.884;2023-05-10T00:43:14;100040.41;;;31.41;24.80
54816;BME280;40715;55.752;37.884;2023-05-10T00:45:41;100043.53;;;31.46;24.95
54816;BME280;40715;55.752;37.884;2023-05-10T00:48:08;100051.69;;;31.46;24.93
54816;BME280;40715;55.752;37.884;2023-05-10T00:50:35;100049.81;;;31.46;24.58
54816;BME280;40715;55.752;37.884;2023-05-10T00:53:03;100049.66;;;31.48;24.53
54816;BME280;40715;55.752;37.884;2023-05-10T00:55:30;100060.53;;;31.48;24.74
54816;BME280;40715;55.752;37.884;2023-05-10T00:57:57;100058.84;;;31.47;24.38
54816;BME280;40715;55.752;37.884;2023-05-10T01:00:25;100058.84;;;31.47;24.75
54816;BME280;40715;55.752;37.884;2023-05-10T01:02:53;100045.38;;;31.45;24.28
54816;BME280;40715;55.752;37.884;2023-05-10T01:05:21;100047.09;;;31.46;24.31
54816;BME280;40715;55.752;37.884;2023-05-10T01:07:48;100043.53;;;31.46;24.69
54816;BME280;40715;55.752;37.884;2023-05-10T01:10:15;100046.41;;;31.44;24.38
54816;BME280;40715;55.752;37.884;2023-05-10T01:12:45;100039.63;;;31.48;24.31
54816;BME280;40715;55.752;37.884;2023-05-10T01:15:14;100040.47;;;31.49;24.37
54816;BME280;40715;55.752;37.884;2023-05-10T01:17:44;100039.13;;;31.53;24.23
54816;BME280;40715;55.752;37.884;2023-05-10T01:20:12;100046.91;;;31.48;24.11
54816;BME280;40715;55.752;37.884;2023-05-10T01:31:06;100029.91;;;31.46;24.24
54816;BME280;40715;55.752;37.884;2023-05-10T01:33:54;100033.53;;;31.55;24.29
54816;BME280;40715;55.752;37.884;2023-05-10T01:36:30;100038.72;;;31.40;24.27
54816;BME280;40715;55.752;37.884;2023-05-10T01:39:17;100043.19;;;31.49;24.19
54816;BME280;40715;55.752;37.884;2023-05-10T01:42:06;100040.97;;;31.44;24.09
54816;BME280;40715;55.752;37.884;2023-05-10T01:44:49;100039.72;;;31.39;24.29
54816;BME280;40715;55.752;37.884;2023-05-10T01:47:34;100040.25;;;31.42;23.96
54816;BME280;40715;55.752;37.884;2023-05-10T01:50:04;100038.00;;;31.38;24.15
54816;BME280;40715;55.752;37.884;2023-05-10T01:52:37;100030.16;;;31.35;24.01
54816;BME280;40715;55.752;37.884;2023-05-10T01:55:07;100042.78;;;31.36;24.12
54816;BME280;40715;55.752;37.884;2023-05-10T01:57:39;100038.00;;;31.38;24.02
54816;BME280;40715;55.752;37.884;2023-05-10T02:00:08;100033.72;;;31.35;24.13
54816;BME280;40715;55.752;37.884;2023-05-10T02:02:40;100035.44;;;31.36;23.96
54816;BME280;40715;55.752;37.884;2023-05-10T02:05:09;100040.91;;;31.36;23.68
54816;BME280;40715;55.752;37.884;2023-05-10T02:07:39;100034.59;;;31.36;23.58
54816;BME280;40715;55.752;37.884;2023-05-10T02:10:07;100029.00;;;31.37;23.86
54816;BME280;40715;55.752;37.884;2023-05-10T02:12:37;100027.97;;;31.38;23.57
54816;BME280;40715;55.752;37.884;2023-05-10T02:15:07;100035.28;;;31.38;23.62
54816;BME280;40715;55.752;37.884;2023-05-10T02:17:37;100032.72;;;31.36;23.70
54816;BME280;40715;55.752;37.884;2023-05-10T02:20:06;100032.56;;;31.38;23.80
54816;BME280;40715;55.752;37.884;2023-05-10T02:22:35;100029.16;;;31.36;23.62
54816;BME280;40715;55.752;37.884;2023-05-10T02:25:03;100035.44;;;31.36;23.47
54816;BME280;40715;55.752;37.884;2023-05-10T02:27:31;100031.72;;;31.37;23.30
54816;BME280;40715;55.752;37.884;2023-05-10T02:29:58;100032.56;;;31.38;23.61
54816;BME280;40715;55.752;37.884;2023-05-10T02:32:27;100025.41;;;31.37;23.31
54816;BME280;40715;55.752;37.884;2023-05-10T02:34:55;100022.69;;;31.37;23.67
54816;BME280;40715;55.752;37.884;2023-05-10T02:37:22;100023.41;;;31.39;23.27
54816;BME280;40715;55.752;37.884;2023-05-10T02:39:52;100024.41;;;31.38;23.60
54816;BME280;40715;55.752;37.884;2023-05-10T02:42:25;100019.66;;;31.40;23.34
54816;BME280;40715;55.752;37.884;2023-05-10T02:44:58;100024.06;;;31.41;23.53
54816;BME280;40715;55.752;37.884;2023-05-10T02:47:32;100022.06;;;31.43;23.28
54816;BME280;40715;55.752;37.884;2023-05-10T02:49:59;100019.50;;;31.41;23.45
54816;BME280;40715;55.752;37.884;2023-05-10T02:52:30;100016.22;;;31.38;23.11
54816;BME280;40715;55.752;37.884;2023-05-10T02:55:05;100013.03;;;31.42;22.90
54816;BME280;40715;55.752;37.884;2023-05-10T02:57:33;100014.06;;;31.41;22.76
54816;BME280;40715;55.752;37.884;2023-05-10T03:00:02;100016.78;;;31.41;22.78
54816;BME280;40715;55.752;37.884;2023-05-10T03:02:33;100013.66;;;31.36;23.24
54816;BME280;40715;55.752;37.884;2023-05-10T03:05:00;100017.47;;;31.43;22.74
54816;BME280;40715;55.752;37.884;2023-05-10T03:07:30;100013.56;;;31.46;23.09
54816;BME280;40715;55.752;37.884;2023-05-10T03:09:57;100014.25;;;31.48;23.21
54816;BME280;40715;55.752;37.884;2023-05-10T03:12:39;100019.75;;;31.56;23.30
54816;BME280;40715;55.752;37.884;2023-05-10T03:15:31;100014.06;;;31.67;23.33
54816;BME280;40715;55.752;37.884;2023-05-10T03:18:09;100014.00;;;31.59;23.60
54816;BME280;40715;55.752;37.884;2023-05-10T03:20:42;100012.31;;;31.58;23.68
54816;BME280;40715;55.752;37.884;2023-05-10T03:23:33;100012.72;;;31.72;23.84
54816;BME280;40715;55.752;37.884;2023-05-10T03:26:01;100014.19;;;31.58;24.00
54816;BME280;40715;55.752;37.884;2023-05-10T03:28:29;100011.59;;;31.56;23.88
54816;BME280;40715;55.752;37.884;2023-05-10T03:30:58;100017.19;;;31.55;24.09
54816;BME280;40715;55.752;37.884;2023-05-10T03:33:26;100015.88;;;31.59;24.76
54816;BME280;40715;55.752;37.884;2023-05-10T03:35:53;100017.78;;;31.58;24.77
54816;BME280;40715;55.752;37.884;2023-05-10T03:38:21;100014.72;;;31.61;24.66
54816;BME280;40715;55.752;37.884;2023-05-10T03:40:48;100018.28;;;31.62;24.97
54816;BME280;40715;55.752;37.884;2023-05-10T03:43:15;100010.28;;;31.60;24.76
54816;BME280;40715;55.752;37.884;2023-05-10T03:45:42;100017.28;;;31.63;24.81
54816;BME280;40715;55.752;37.884;2023-05-10T03:48:12;100009.94;;;31.63;25.20
54816;BME280;40715;55.752;37.884;2023-05-10T03:50:40;100008.94;;;31.64;25.14
54816;BME280;40715;55.752;37.884;2023-05-10T03:53:07;100014.38;;;31.64;25.24
54816;BME280;40715;55.752;37.884;2023-05-10T03:55:34;100013.56;;;31.64;24.98
54816;BME280;40715;55.752;37.884;2023-05-10T03:58:03;100018.84;;;31.65;25.07
54816;BME280;40715;55.752;37.884;2023-05-10T04:00:30;100015.06;;;31.66;25.41
54816;BME280;40715;55.752;37.884;2023-05-10T04:02:59;100013.06;;;31.69;25.33
54816;BME280;40715;55.752;37.884;2023-05-10T04:05:26;100010.34;;;31.69;25.33
54816;BME280;40715;55.752;37.884;2023-05-10T04:07:53;100008.63;;;31.67;25.54
54816;BME280;40715;55.752;37.884;2023-05-10T04:10:20;100012.19;;;31.68;25.47
54816;BME280;40715;55.752;37.884;2023-05-10T04:12:47;100015.63;;;31.70;25.41
54816;BME280;40715;55.752;37.884;2023-05-10T04:15:14;100012.88;;;31.70;25.51
54816;BME280;40715;55.752;37.884;2023-05-10T04:17:42;100009.28;;;31.70;25.18
54816;BME280;40715;55.752;37.884;2023-05-10T04:20:09;100012.03;;;31.70;25.59
54816;BME280;40715;55.752;37.884;2023-05-10T04:22:37;100011.00;;;31.71;25.74
54816;BME280;40715;55.752;37.884;2023-05-10T04:25:05;100008.44;;;31.69;25.29
54816;BME280;40715;55.752;37.884;2023-05-10T04:27:33;99996.88;;;31.67;25.55
54816;BME280;40715;55.752;37.884;2023-05-10T04:30:00;99998.09;;;31.73;25.34
54816;BME280;40715;55.752;37.884;2023-05-10T04:32:31;100000.81;;;31.73;25.45
54816;BME280;40715;55.752;37.884;2023-05-10T04:34:59;99999.94;;;31.72;25.79
54816;BME280;40715;55.752;37.884;2023-05-10T04:37:26;99996.22;;;31.73;25.30
54816;BME280;40715;55.752;37.884;2023-05-10T04:39:53;100002.34;;;31.75;25.52
54816;BME280;40715;55.752;37.884;2023-05-10T04:42:20;99994.19;;;31.75;25.40
54816;BME280;40715;55.752;37.884;2023-05-10T04:44:46;99997.78;;;31.76;25.36
54816;BME280;40715;55.752;37.884;2023-05-10T04:47:13;99991.31;;;31.77;25.51
54816;BME280;40715;55.752;37.884;2023-05-10T04:49:40;99994.88;;;31.77;25.59
54816;BME280;40715;55.752;37.884;2023-05-10T04:52:07;99991.31;;;31.77;25.50
54816;BME280;40715;55.752;37.884;2023-05-10T04:54:34;99983.16;;;31.77;25.91
54816;BME280;40715;55.752;37.884;2023-05-10T04:57:01;99990.44;;;31.76;25.57
54816;BME280;40715;55.752;37.884;2023-05-10T04:59:28;99993.16;;;31.76;25.62
54816;BME280;40715;55.752;37.884;2023-05-10T05:01:55;99993.00;;;31.78;26.02
54816;BME280;40715;55.752;37.884;2023-05-10T05:04:22;99990.09;;;31.79;26.28
54816;BME280;40715;55.752;37.884;2023-05-10T05:06:50;99989.94;;;31.81;26.28
54816;BME280;40715;55.752;37.884;2023-05-10T05:09:19;99989.66;;;31.84;26.09
54816;BME280;40715;55.752;37.884;2023-05-10T05:11:46;99992.88;;;31.88;26.06
54816;BME280;40715;55.752;37.884;2023-05-10T05:14:13;99986.09;;;31.92;26.13
54816;BME280;40715;55.752;37.884;2023-05-10T05:16:40;99986.09;;;31.92;25.77
54816;BME280;40715;55.752;37.884;2023-05-10T05:19:07;99983.19;;;31.93;25.97
54816;BME280;40715;55.752;37.884;2023-05-10T05:21:34;99977.41;;;31.96;26.23
54816;BME280;40715;55.752;37.884;2023-05-10T05:24:01;99972.84;;;31.97;25.90
54816;BME280;40715;55.752;37.884;2023-05-10T05:26:29;99973.50;;;31.99;25.90
54816;BME280;40715;55.752;37.884;2023-05-10T05:28:56;99971.31;;;32.03;26.07
54816;BME280;40715;55.752;37.884;2023-05-10T05:31:23;99974.03;;;32.03;25.80
54816;BME280;40715;55.752;37.884;2023-05-10T05:33:49;99963.66;;;32.06;26.01
54816;BME280;40715;55.752;37.884;2023-05-10T05:36:16;99972.66;;;32.07;26.33
54816;BME280;40715;55.752;37.884;2023-05-10T05:38:43;99969.81;;;32.08;26.17
54816;BME280;40715;55.752;37.884;2023-05-10T05:41:10;99976.78;;;32.11;26.03
54816;BME280;40715;55.752;37.884;2023-05-10T05:43:37;99974.78;;;32.13;26.24
54816;BME280;40715;55.752;37.884;2023-05-10T05:46:05;99977.50;;;32.13;26.23
54816;BME280;40715;55.752;37.884;2023-05-10T05:48:32;99963.16;;;32.11;26.33
54816;BME280;40715;55.752;37.884;2023-05-10T05:50:59;99962.13;;;32.12;26.15
54816;BME280;40715;55.752;37.884;2023-05-10T05:53:26;99973.78;;;32.14;26.35
54816;BME280;40715;55.752;37.884;2023-05-10T05:55:55;99973.88;;;32.12;25.91
54816;BME280;40715;55.752;37.884;2023-05-10T05:58:23;99967.59;;;32.12;25.91
54816;BME280;40715;55.752;37.884;2023-05-10T06:00:51;99967.75;;;32.10;26.12
54816;BME280;40715;55.752;37.884;2023-05-10T06:03:21;99961.47;;;32.10;26.14
54816;BME280;40715;55.752;37.884;2023-05-10T06:05:48;99971.31;;;32.11;26.09
54816;BME280;40715;55.752;37.884;2023-05-10T06:08:15;99967.44;;;32.13;26.28
54816;BME280;40715;55.752;37.884;2023-05-10T06:10:42;99956.56;;;32.13;26.08
54816;BME280;40715;55.752;37.884;2023-05-10T06:13:09;99961.00;;;32.14;25.99
54816;BME280;40715;55.752;37.884;2023-05-10T06:15:37;99950.88;;;32.07;26.33
54816;BME280;40715;55.752;37.884;2023-05-10T06:18:04;99951.41;;;32.10;26.31
54816;BME280;40715;55.752;37.884;2023-05-10T06:20:31;99949.00;;;32.07;26.16
54816;BME280;40715;55.752;37.884;2023-05-10T06:22:58;99953.13;;;32.11;26.24
54816;BME280;40715;55.752;37.884;2023-05-10T06:25:25;99951.41;;;32.10;26.13
54816;BME280;40715;55.752;37.884;2023-05-10T06:27:52;99962.00;;;32.13;26.05
54816;BME280;40715;55.752;37.884;2023-05-10T06:30:25;99952.97;;;32.13;26.30
54816;BME280;40715;55.752;37.884;2023-05-10T06:32:55;99961.00;;;32.14;25.98
54816;BME280;40715;55.752;37.884;2023-05-10T06:35:22;99957.44;;;32.14;26.17
54816;BME280;40715;55.752;37.884;2023-05-10T06:37:50;99949.34;;;32.12;26.47
54816;BME280;40715;55.752;37.884;2023-05-10T06:40:18;99945.78;;;32.12;26.41
54816;BME280;40715;55.752;37.884;2023-05-10T06:42:47;99943.22;;;32.10;26.62
54816;BME280;40715;55.752;37.884;2023-05-10T06:45:14;99952.06;;;32.12;26.05
54816;BME280;40715;55.752;37.884;2023-05-10T06:47:43;99953.97;;;32.12;26.32
54816;BME280;40715;55.752;37.884;2023-05-10T06:50:10;99950.25;;;32.13;26.40
54816;BME280;40715;55.752;37.884;2023-05-10T06:52:40;99948.50;;;32.12;25.79
54816;BME280;40715;55.752;37.884;2023-05-10T06:55:08;99946.63;;;32.12;26.06
54816;BME280;40715;55.752;37.884;2023-05-10T06:57:35;99943.06;;;32.12;26.04
54816;BME280;40715;55.752;37.884;2023-05-10T07:00:03;99938.78;;;32.09;25.80
54816;BME280;40715;55.752;37.884;2023-05-10T07:02:33;99941.50;;;32.09;25.77
54816;BME280;40715;55.752;37.884;2023-05-10T07:05:01;99945.97;;;32.10;26.11
54816;BME280;40715;55.752;37.884;2023-05-10T07:07:41;99939.34;;;32.13;25.99
54816;BME280;40715;55.752;37.884;2023-05-10T07:10:08;99936.94;;;32.10;25.73
54816;BME280;40715;55.752;37.884;2023-05-10T07:12:35;99935.91;;;32.11;26.06
54816;BME280;40715;55.752;37.884;2023-05-10T07:15:03;99940.50;;;32.10;25.59
54816;BME280;40715;55.752;37.884;2023-05-10T07:17:31;99937.78;;;32.10;25.91
54816;BME280;40715;55.752;37.884;2023-05-10T07:20:00;99934.22;;;32.10;25.74
54816;BME280;40715;55.752;37.884;2023-05-10T07:22:30;99937.78;;;32.10;25.77
54816;BME280;40715;55.752;37.884;2023-05-10T07:24:57;99926.50;;;32.05;25.92
54816;BME280;40715;55.752;37.884;2023-05-10T07:27:24;99934.00;;;32.03;25.86
54816;BME280;40715;55.752;37.884;2023-05-10T07:29:51;99931.28;;;32.03;26.00
54816;BME280;40715;55.752;37.884;2023-05-10T07:32:18;99931.28;;;32.03;25.64
54816;BME280;40715;55.752;37.884;2023-05-10T07:34:45;99932.31;;;32.02;25.69
54816;BME280;40715;55.752;37.884;2023-05-10T07:37:12;99926.84;;;32.02;25.51
54816;BME280;40715;55.752;37.884;2023-05-10T07:39:39;99928.56;;;32.03;25.79
54816;BME280;40715;55.752;37.884;2023-05-10T07:42:06;99930.28;;;32.04;25.76
54816;BME280;40715;55.752;37.884;2023-05-10T07:44:33;99929.41;;;32.04;25.54
54816;BME280;40715;55.752;37.884;2023-05-10T07:47:00;99924.66;;;32.06;25.52
54816;BME280;40715;55.752;37.884;2023-05-10T07:49:27;99920.06;;;32.06;25.66
54816;BME280;40715;55.752;37.884;2023-05-10T07:51:54;99927.38;;;32.06;25.48
54816;BME280;40715;55.752;37.884;2023-05-10T07:54:22;99921.94;;;32.06;25.93
54816;BME280;40715;55.752;37.884;2023-05-10T07:56:49;99913.75;;;32.06;25.79
54816;BME280;40715;55.752;37.884;2023-05-10T07:59:17;99919.88;;;32.08;25.87
54816;BME280;40715;55.752;37.884;2023-05-10T08:01:44;99912.56;;;32.08;25.54
54816;BME280;40715;55.752;37.884;2023-05-10T08:04:12;99912.25;;;32.11;25.59
54816;BME280;40715;55.752;37.884;2023-05-10T08:06:39;99910.34;;;32.12;25.68
54816;BME280;40715;55.752;37.884;2023-05-10T08:09:08;99911.19;;;32.12;25.68
54816;BME280;40715;55.752;37.884;2023-05-10T08:11:35;99910.91;;;32.15;25.72
54816;BME280;40715;55.752;37.884;2023-05-10T08:14:02;99900.84;;;32.16;25.53
54816;BME280;40715;55.752;37.884;2023-05-10T08:16:29;99899.84;;;32.17;25.44
54816;BME280;40715;55.752;37.884;2023-05-10T08:18:56;99898.97;;;32.16;25.23
54816;BME280;40715;55.752;37.884;2023-05-10T08:21:23;99899.84;;;32.17;25.50
54816;BME280;40715;55.752;37.884;2023-05-10T08:23:51;99895.06;;;32.19;25.48
54816;BME280;40715;55.752;37.884;2023-05-10T08:26:19;99892.16;;;32.21;25.09
54816;BME280;40715;55.752;37.884;2023-05-10T08:28:48;99883.16;;;32.20;25.12
54816;BME280;40715;55.752;37.884;2023-05-10T08:31:15;99889.44;;;32.21;25.45
54816;BME280;40715;55.752;37.884;2023-05-10T08:33:42;99884.00;;;32.21;25.14
54816;BME280;40715;55.752;37.884;2023-05-10T08:36:10;99882.97;;;32.22;24.99
54816;BME280;40715;55.752;37.884;2023-05-10T08:38:37;99879.41;;;32.21;25.42
54816;BME280;40715;55.752;37.884;2023-05-10T08:41:05;99881.97;;;32.23;25.18
54816;BME280;40715;55.752;37.884;2023-05-10T08:43:33;99880.25;;;32.22;25.03
54816;BME280;40715;55.752;37.884;2023-05-10T08:46:05;99872.56;;;32.25;25.14
54816;BME280;40715;55.752;37.884;2023-05-10T08:48:34;99871.38;;;32.28;25.14
54816;BME280;40715;55.752;37.884;2023-05-10T08:51:03;99869.38;;;32.30;24.83
54816;BME280;40715;55.752;37.884;2023-05-10T08:53:33;99871.03;;;32.31;25.22
54816;BME280;40715;55.752;37.884;2023-05-10T08:56:03;99862.88;;;32.31;24.88
54816;BME280;40715;55.752;37.884;2023-05-10T08:58:30;99866.63;;;32.30;25.02
54816;BME280;40715;55.752;37.884;2023-05-10T09:00:58;99863.22;;;32.28;25.05
54816;BME280;40715;55.752;37.884;2023-05-10T09:03:26;99858.63;;;32.28;25.02
54816;BME280;40715;55.752;37.884;2023-05-10T09:05:53;99864.09;;;32.28;24.96
54816;BME280;40715;55.752;37.884;2023-05-10T09:08:26;99859.66;;;32.27;24.59
54816;BME280;40715;55.752;37.884;2023-05-10T09:10:57;99861.66;;;32.25;24.78
54816;BME280;40715;55.752;37.884;2023-05-10T09:13:24;99859.66;;;32.27;24.84
54816;BME280;40715;55.752;37.884;2023-05-10T09:15:52;99856.22;;;32.25;24.82
54816;BME280;40715;55.752;37.884;2023-05-10T09:18:20;99857.94;;;32.26;24.25
54816;BME280;40715;55.752;37.884;2023-05-10T09:20:48;99850.75;;;32.25;24.71
54816;BME280;40715;55.752;37.884;2023-05-10T09:23:15;99855.22;;;32.26;24.58
54816;BME280;40715;55.752;37.884;2023-05-10T09:25:42;99850.63;;;32.27;24.09
54816;BME280;40715;55.752;37.884;2023-05-10T09:28:10;99844.31;;;32.26;24.03
54816;BME280;40715;55.752;37.884;2023-05-10T09:30:38;99840.91;;;32.24;24.04
54816;BME280;40715;55.752;37.884;2023-05-10T09:33:05;99841.75;;;32.25;24.06
54816;BME280;40715;55.752;37.884;2023-05-10T09:35:33;99837.47;;;32.22;24.32
54816;BME280;40715;55.752;37.884;2023-05-10T09:38:03;99840.03;;;32.24;23.71
54816;BME280;40715;55.752;37.884;2023-05-10T09:40:31;99824.19;;;32.19;23.62
54816;BME280;40715;55.752;37.884;2023-05-10T09:43:04;99833.41;;;32.26;24.05
54816;BME280;40715;55.752;37.884;2023-05-10T09:45:34;99828.28;;;32.23;24.16
54816;BME280;40715;55.752;37.884;2023-05-10T09:48:04;99824.72;;;32.23;23.88
54816;BME280;40715;55.752;37.884;2023-05-10T09:50:31;99826.41;;;32.24;23.64
54816;BME280;40715;55.752;37.884;2023-05-10T09:53:02;99816.72;;;32.21;24.07
54816;BME280;40715;55.752;37.884;2023-05-10T09:58:03;99811.09;;;32.23;23.52
54816;BME280;40715;55.752;37.884;2023-05-10T10:00:44;99824.56;;;32.24;23.48
54816;BME280;40715;55.752;37.884;2023-05-10T10:03:19;99823.50;;;32.25;23.92
54816;BME280;40715;55.752;37.884;2023-05-10T10:05:48;99812.94;;;32.22;23.62
54816;BME280;40715;55.752;37.884;2023-05-10T10:08:15;99808.72;;;32.20;23.91
54816;BME280;40715;55.752;37.884;2023-05-10T10:10:43;99811.28;;;32.21;23.88
54816;BME280;40715;55.752;37.884;2023-05-10T10:13:13;99804.09;;;32.20;23.87
54816;BME280;40715;55.752;37.884;2023-05-10T10:15:44;99812.13;;;32.22;23.40
54816;BME280;40715;55.752;37.884;2023-05-10T10:18:13;99806.00;;;32.20;23.72
54816;BME280;40715;55.752;37.884;2023-05-10T10:20:42;99796.59;;;32.22;23.46
54816;BME280;40715;55.752;37.884;2023-05-10T10:23:09;99779.41;;;32.13;23.46
54816;BME280;40715;55.752;37.884;2023-05-10T10:25:37;99786.03;;;32.19;23.73
54816;BME280;40715;55.752;37.884;2023-05-10T10:28:38;99790.97;;;32.40;23.22
54816;BME280;40715;55.752;37.884;2023-05-10T10:31:25;99792.69;;;32.33;22.94
54816;BME280;40715;55.752;37.884;2023-05-10T10:34:06;99789.25;;;32.31;23.02
54816;BME280;40715;55.752;37.884;2023-05-10T10:36:47;99787.75;;;32.28;22.73
54816;BME280;40715;55.752;37.884;2023-05-10T10:39:15;99785.03;;;32.20;22.66
54816;BME280;40715;55.752;37.884;2023-05-10T10:41:53;99785.34;;;32.25;22.68
54816;BME280;40715;55.752;37.884;2023-05-10T10:44:33;99783.16;;;32.29;22.65
54816;BME280;40715;55.752;37.884;2023-05-10T10:55:02;99777.88;;;32.19;22.58
54816;BME280;40715;55.752;37.884;2023-05-10T10:57:53;99770.03;;;32.32;22.33
54816;BME280;40715;55.752;37.884;2023-05-10T11:00:29;99775.31;;;32.17;22.21
54816;BME280;40715;55.752;37.884;2023-05-10T11:03:13;99766.44;;;32.24;22.46
54816;BME280;40715;55.752;37.884;2023-05-10T11:10:38;99762.22;;;32.13;22.10
54816;BME280;40715;55.752;37.884;2023-05-10T11:13:08;99764.75;;;32.14;22.09
54816;BME280;40715;55.752;37.884;2023-05-10T11:15:37;99760.16;;;32.15;21.88
54816;BME280;40715;55.752;37.884;2023-05-10T11:18:25;99758.44;;;32.30;22.18
54816;BME280;40715;55.752;37.884;2023-05-10T11:20:59;99758.28;;;32.15;21.93
54816;BME280;40715;55.752;37.884;2023-05-10T11:23:52;99755.75;;;32.14;22.59
54816;BME280;40715;55.752;37.884;2023-05-10T11:26:18;99746.03;;;32.20;22.49
54816;BME280;40715;55.752;37.884;2023-05-10T11:28:46;99746.69;;;32.13;22.29
54816;BME280;40715;55.752;37.884;2023-05-10T11:31:15;99746.69;;;32.13;22.77
54816;BME280;40715;55.752;37.884;2023-05-10T11:33:50;99742.13;;;32.14;22.46
54816;BME280;40715;55.752;37.884;2023-05-10T11:36:19;99740.06;;;32.16;22.38
54816;BME280;40715;55.752;37.884;2023-05-10T11:38:47;99731.03;;;32.15;22.66
54816;BME280;40715;55.752;37.884;2023-05-10T11:41:17;99738.34;;;32.15;22.13
54816;BME280;40715;55.752;37.884;2023-05-10T11:43:50;99731.03;;;32.15;22.12
54816;BME280;40715;55.752;37.884;2023-05-10T11:46:25;99723.69;;;32.16;22.17
54816;BME280;40715;55.752;37.884;2023-05-10T11:48:57;99723.19;;;32.21;22.05
54816;BME280;40715;55.752;37.884;2023-05-10T11:51:25;99724.88;;;32.13;22.07
54816;BME280;40715;55.752;37.884;2023-05-10T11:53:56;99722.00;;;32.15;22.32
54816;BME280;40715;55.752;37.884;2023-05-10T11:56:23;99722.88;;;32.15;22.05
54816;BME280;40715;55.752;37.884;2023-05-10T11:58:57;99722.16;;;32.13;22.42
54816;BME280;40715;55.752;37.884;2023-05-10T12:01:25;99732.06;;;32.14;22.31
54816;BME280;40715;55.752;37.884;2023-05-10T12:03:55;99719.97;;;32.17;22.32
54816;BME280;40715;55.752;37.884;2023-05-10T12:06:31;99720.81;;;32.17;21.97
54816;BME280;40715;55.752;37.884;2023-05-10T12:08:59;99718.25;;;32.16;22.07
54816;BME280;40715;55.752;37.884;2023-05-10T12:11:27;99712.97;;;32.14;22.45
54816;BME280;40715;55.752;37.884;2023-05-10T12:13:55;99700.19;;;32.15;22.05
54816;BME280;40715;55.752;37.884;2023-05-10T12:16:24;99705.81;;;32.13;22.13
54816;BME280;40715;55.752;37.884;2023-05-10T12:18:55;99707.34;;;32.16;22.32
54816;BME280;40715;55.752;37.884;2023-05-10T12:21:23;99698.63;;;32.12;22.10
54816;BME280;40715;55.752;37.884;2023-05-10T12:23:51;99705.63;;;32.15;22.43
54816;BME280;40715;55.752;37.884;2023-05-10T12:26:22;99701.06;;;32.15;22.47
54816;BME280;40715;55.752;37.884;2023-05-10T12:28:50;99700.88;;;32.17;22.42
54816;BME280;40715;55.752;37.884;2023-05-10T12:31:17;99691.00;;;32.16;21.93
54816;BME280;40715;55.752;37.884;2023-05-10T12:33:44;99699.16;;;32.16;22.43
54816;BME280;40715;55.752;37.884;2023-05-10T12:36:14;99687.09;;;32.18;22.42
54816;BME280;40715;55.752;37.884;2023-05-10T12:38:43;99693.38;;;32.19;21.98
54816;BME280;40715;55.752;37.884;2023-05-10T12:41:16;99691.84;;;32.16;22.44
54816;BME280;40715;55.752;37.884;2023-05-10T12:43:44;99688.94;;;32.18;22.04
54816;BME280;40715;55.752;37.884;2023-05-10T12:46:13;99689.97;;;32.17;22.04
54816;BME280;40715;55.752;37.884;2023-05-10T12:48:42;99691.84;;;32.16;22.09
54816;BME280;40715;55.752;37.884;2023-05-10T12:51:10;99695.78;;;32.14;22.06
54816;BME280;40715;55.752;37.884;2023-05-10T12:53:39;99699.34;;;32.14;22.01
54816;BME280;40715;55.752;37.884;2023-05-10T12:56:09;99688.06;;;32.09;21.94
54816;BME280;40715;55.752;37.884;2023-05-10T12:58:36;99698.63;;;32.12;21.73
54816;BME280;40715;55.752;37.884;2023-05-10T13:01:04;99693.53;;;32.09;21.93
54816;BME280;40715;55.752;37.884;2023-05-10T13:03:32;99696.78;;;32.13;21.53
54816;BME280;40715;55.752;37.884;2023-05-10T13:05:59;99679.06;;;32.09;21.66
54816;BME280;40715;55.752;37.884;2023-05-10T13:08:26;99688.94;;;32.10;21.83
54816;BME280;40715;55.752;37.884;2023-05-10T13:10:53;99670.19;;;32.07;21.42
54816;BME280;40715;55.752;37.884;2023-05-10T13:13:20;99688.63;;;32.13;21.16
54816;BME280;40715;55.752;37.884;2023-05-10T13:15:47;99677.72;;;32.13;21.65
54816;BME280;40715;55.752;37.884;2023-05-10T13:18:14;99677.16;;;32.09;21.15
54816;BME280;40715;55.752;37.884;2023-05-10T13:20:41;99676.81;;;32.12;21.11
54816;BME280;40715;55.752;37.884;2023-05-10T13:23:10;99681.59;;;32.10;21.31